sensor_id;sensor_type;location;lat;lon;timestamp;P1;durP1;ratioP1;P2;durP2;ratioP2
7426;SDS011;3755;59.316;18.092;2023-06-24T00:01:43;6.30;;;4.30;;
7426;SDS011;3755;59.316;18.092;2023-06-24T00:04:10;4.95;;;3.92;;
7426;SDS011;3755;59.316;18.092;2023-06-24T00:06:41;4.95;;;3.70;;
7426;SDS011;3755;59.316;18.092;2023-06-24T00:09:08;5.35;;;4.20;;
7426;SDS011;3755;59.316;18.092;2023-06-24T00:11:35;6.18;;;4.40;;
7426;SDS011;3755;59.316;18.092;2023-06-24T00:14:03;5.20;;;4.53;;
7426;SDS011;3755;59.316;18.092;2023-06-24T00:16:30;6.90;;;4.38;;
7426;SDS011;3755;59.316;18.092;2023-06-24T00:18:57;6.10;;;4.38;;
7426;SDS011;3755;59.316;18.092;2023-06-24T00:21:25;6.75;;;4.90;;
7426;SDS011;3755;59.316;18.092;2023-06-24T00:23:56;7.50;;;5.18;;
7426;SDS011;3755;59.316;18.092;2023-06-24T00:26:26;7.25;;;4.53;;
7426;SDS011;3755;59.316;18.092;2023-06-24T00:28:53;10.57;;;5.10;;
7426;SDS011;3755;59.316;18.092;2023-06-24T00:31:20;6.18;;;4.28;;
7426;SDS011;3755;59.316;18.092;2023-06-24T00:33:47;8.48;;;5.00;;
7426;SDS011;3755;59.316;18.092;2023-06-24T00:36:17;9.85;;;4.97;;
7426;SDS011;3755;59.316;18.092;2023-06-24T00:38:44;11.63;;;5.07;;
7426;SDS011;3755;59.316;18.092;2023-06-24T00:41:13;7.40;;;4.95;;
7426;SDS011;3755;59.316;18.092;2023-06-24T00:43:40;7.10;;;5.18;;
7426;SDS011;3755;59.316;18.092;2023-06-24T00:46:07;9.27;;;5.45;;
7426;SDS011;3755;59.316;18.092;2023-06-24T00:48:34;9.25;;;5.32;;
7426;SDS011;3755;59.316;18.092;2023-06-24T00:51:02;6.18;;;4.93;;
7426;SDS011;3755;59.316;18.092;2023-06-24T00:53:29;5.25;;;4.63;;
7426;SDS011;3755;59.316;18.092;2023-06-24T00:55:57;6.63;;;4.70;;
7426;SDS011;3755;59.316;18.092;2023-06-24T00:58:29;7.95;;;4.90;;
7426;SDS011;3755;59.316;18.092;2023-06-24T01:00:57;5.97;;;4.38;;
7426;SDS011;3755;59.316;18.092;2023-06-24T01:03:26;8.40;;;4.68;;
7426;SDS011;3755;59.316;18.092;2023-06-24T01:05:54;9.02;;;5.00;;
7426;SDS011;3755;59.316;18.092;2023-06-24T01:08:22;7.05;;;5.00;;
7426;SDS011;3755;59.316;18.092;2023-06-24T01:10:49;6.53;;;4.60;;
7426;SDS011;3755;59.316;18.092;2023-06-24T01:13:17;7.18;;;5.10;;
7426;SDS011;3755;59.316;18.092;2023-06-24T01:15:45;9.98;;;6.22;;
7426;SDS011;3755;59.316;18.092;2023-06-24T01:18:15;8.00;;;5.03;;
7426;SDS011;3755;59.316;18.092;2023-06-24T01:20:49;6.15;;;3.90;;
7426;SDS011;3755;59.316;18.092;2023-06-24T01:23:29;5.55;;;4.05;;
7426;SDS011;3755;59.316;18.092;2023-06-24T01:26:19;6.82;;;4.32;;
7426;SDS011;3755;59.316;18.092;2023-06-24T01:29:09;5.25;;;4.22;;
7426;SDS011;3755;59.316;18.092;2023-06-24T01:32:12;8.30;;;4.47;;
7426;SDS011;3755;59.316;18.092;2023-06-24T01:34:47;6.18;;;4.63;;
7426;SDS011;3755;59.316;18.092;2023-06-24T01:37:20;7.70;;;4.68;;
7426;SDS011;3755;59.316;18.092;2023-06-24T01:39:57;5.60;;;3.92;;
7426;SDS011;3755;59.316;18.092;2023-06-24T01:42:34;6.88;;;4.40;;
7426;SDS011;3755;59.316;18.092;2023-06-24T01:45:04;4.80;;;3.92;;
7426;SDS011;3755;59.316;18.092;2023-06-24T01:47:34;5.57;;;3.83;;
7426;SDS011;3755;59.316;18.092;2023-06-24T01:50:03;4.88;;;3.80;;
7426;SDS011;3755;59.316;18.092;2023-06-24T01:52:33;4.97;;;3.35;;
7426;SDS011;3755;59.316;18.092;2023-06-24T01:55:02;5.45;;;2.80;;
7426;SDS011;3755;59.316;18.092;2023-06-24T01:57:33;4.82;;;3.50;;
7426;SDS011;3755;59.316;18.092;2023-06-24T02:00:02;5.10;;;3.40;;
7426;SDS011;3755;59.316;18.092;2023-06-24T02:02:32;5.28;;;3.03;;
7426;SDS011;3755;59.316;18.092;2023-06-24T02:05:02;5.35;;;3.45;;
7426;SDS011;3755;59.316;18.092;2023-06-24T02:07:31;4.32;;;3.20;;
7426;SDS011;3755;59.316;18.092;2023-06-24T02:09:59;4.57;;;3.53;;
7426;SDS011;3755;59.316;18.092;2023-06-24T02:12:27;4.90;;;3.65;;
7426;SDS011;3755;59.316;18.092;2023-06-24T02:14:55;4.18;;;3.42;;
7426;SDS011;3755;59.316;18.092;2023-06-24T02:17:24;4.65;;;3.15;;
7426;SDS011;3755;59.316;18.092;2023-06-24T02:19:56;3.78;;;2.75;;
7426;SDS011;3755;59.316;18.092;2023-06-24T02:22:25;3.60;;;2.55;;
7426;SDS011;3755;59.316;18.092;2023-06-24T02:24:53;2.60;;;2.03;;
7426;SDS011;3755;59.316;18.092;2023-06-24T02:27:21;2.15;;;1.80;;
7426;SDS011;3755;59.316;18.092;2023-06-24T02:29:49;4.30;;;1.98;;
7426;SDS011;3755;59.316;18.092;2023-06-24T02:32:17;2.35;;;1.88;;
7426;SDS011;3755;59.316;18.092;2023-06-24T02:34:45;2.45;;;1.98;;
7426;SDS011;3755;59.316;18.092;2023-06-24T02:37:14;2.65;;;1.83;;
7426;SDS011;3755;59.316;18.092;2023-06-24T02:39:41;2.33;;;1.70;;
7426;SDS011;3755;59.316;18.092;2023-06-24T02:42:09;3.28;;;1.73;;
7426;SDS011;3755;59.316;18.092;2023-06-24T02:44:37;2.72;;;1.95;;
7426;SDS011;3755;59.316;18.092;2023-06-24T02:47:06;2.25;;;2.03;;
7426;SDS011;3755;59.316;18.092;2023-06-24T02:49:36;2.38;;;1.73;;
7426;SDS011;3755;59.316;18.092;2023-06-24T02:52:05;2.67;;;1.98;;
7426;SDS011;3755;59.316;18.092;2023-06-24T02:54:34;2.10;;;1.90;;
7426;SDS011;3755;59.316;18.092;2023-06-24T02:57:04;2.80;;;1.77;;
7426;SDS011;3755;59.316;18.092;2023-06-24T02:59:34;2.70;;;2.00;;
7426;SDS011;3755;59.316;18.092;2023-06-24T03:02:02;2.08;;;1.88;;
7426;SDS011;3755;59.316;18.092;2023-06-24T03:04:30;2.60;;;1.88;;
7426;SDS011;3755;59.316;18.092;2023-06-24T03:06:57;2.35;;;1.92;;
7426;SDS011;3755;59.316;18.092;2023-06-24T03:09:26;1.58;;;1.45;;
7426;SDS011;3755;59.316;18.092;2023-06-24T03:11:55;1.90;;;1.50;;
7426;SDS011;3755;59.316;18.092;2023-06-24T03:14:22;1.80;;;1.70;;
7426;SDS011;3755;59.316;18.092;2023-06-24T03:16:49;2.47;;;1.70;;
7426;SDS011;3755;59.316;18.092;2023-06-24T03:19:16;1.50;;;1.40;;
7426;SDS011;3755;59.316;18.092;2023-06-24T03:21:43;1.95;;;1.60;;
7426;SDS011;3755;59.316;18.092;2023-06-24T03:24:10;2.28;;;1.50;;
7426;SDS011;3755;59.316;18.092;2023-06-24T03:26:38;1.70;;;1.42;;
7426;SDS011;3755;59.316;18.092;2023-06-24T03:29:07;2.50;;;1.52;;
7426;SDS011;3755;59.316;18.092;2023-06-24T03:31:34;1.77;;;1.67;;
7426;SDS011;3755;59.316;18.092;2023-06-24T03:34:01;1.70;;;1.40;;
7426;SDS011;3755;59.316;18.092;2023-06-24T03:36:28;1.65;;;1.40;;
7426;SDS011;3755;59.316;18.092;2023-06-24T03:38:55;3.28;;;1.85;;
7426;SDS011;3755;59.316;18.092;2023-06-24T03:41:22;2.15;;;1.50;;
7426;SDS011;3755;59.316;18.092;2023-06-24T03:43:51;2.95;;;1.73;;
7426;SDS011;3755;59.316;18.092;2023-06-24T03:46:19;3.13;;;1.60;;
7426;SDS011;3755;59.316;18.092;2023-06-24T03:48:47;1.38;;;1.27;;
7426;SDS011;3755;59.316;18.092;2023-06-24T03:51:14;2.33;;;1.50;;
7426;SDS011;3755;59.316;18.092;2023-06-24T03:53:41;1.40;;;1.30;;
7426;SDS011;3755;59.316;18.092;2023-06-24T03:56:08;2.10;;;1.48;;
7426;SDS011;3755;59.316;18.092;2023-06-24T03:58:35;3.30;;;1.65;;
7426;SDS011;3755;59.316;18.092;2023-06-24T04:01:02;2.35;;;1.30;;
7426;SDS011;3755;59.316;18.092;2023-06-24T04:03:31;2.42;;;1.30;;
7426;SDS011;3755;59.316;18.092;2023-06-24T04:05:58;1.92;;;1.30;;
7426;SDS011;3755;59.316;18.092;2023-06-24T04:08:26;1.73;;;1.50;;
7426;SDS011;3755;59.316;18.092;2023-06-24T04:10:54;1.65;;;1.35;;
7426;SDS011;3755;59.316;18.092;2023-06-24T04:13:21;2.00;;;1.23;;
7426;SDS011;3755;59.316;18.092;2023-06-24T04:15:48;2.20;;;1.60;;
7426;SDS011;3755;59.316;18.092;2023-06-24T04:18:16;1.75;;;1.30;;
7426;SDS011;3755;59.316;18.092;2023-06-24T04:20:44;2.35;;;1.25;;
7426;SDS011;3755;59.316;18.092;2023-06-24T04:23:12;2.75;;;1.42;;
7426;SDS011;3755;59.316;18.092;2023-06-24T04:25:39;2.30;;;1.65;;
7426;SDS011;3755;59.316;18.092;2023-06-24T04:28:07;1.63;;;1.15;;
7426;SDS011;3755;59.316;18.092;2023-06-24T04:30:34;1.70;;;1.20;;
7426;SDS011;3755;59.316;18.092;2023-06-24T04:33:03;4.32;;;1.67;;
7426;SDS011;3755;59.316;18.092;2023-06-24T04:35:31;1.88;;;1.33;;
7426;SDS011;3755;59.316;18.092;2023-06-24T04:37:59;3.28;;;1.70;;
7426;SDS011;3755;59.316;18.092;2023-06-24T04:40:27;1.65;;;1.00;;
7426;SDS011;3755;59.316;18.092;2023-06-24T04:42:55;2.17;;;1.30;;
7426;SDS011;3755;59.316;18.092;2023-06-24T04:45:22;2.67;;;1.10;;
7426;SDS011;3755;59.316;18.092;2023-06-24T04:47:49;1.83;;;1.40;;
7426;SDS011;3755;59.316;18.092;2023-06-24T04:50:17;4.90;;;1.45;;
7426;SDS011;3755;59.316;18.092;2023-06-24T04:52:44;2.55;;;1.20;;
7426;SDS011;3755;59.316;18.092;2023-06-24T04:55:13;1.67;;;1.33;;
7426;SDS011;3755;59.316;18.092;2023-06-24T04:57:41;3.05;;;1.45;;
7426;SDS011;3755;59.316;18.092;2023-06-24T05:00:09;2.38;;;1.40;;
7426;SDS011;3755;59.316;18.092;2023-06-24T05:02:36;3.10;;;1.48;;
7426;SDS011;3755;59.316;18.092;2023-06-24T05:05:04;1.85;;;1.17;;
7426;SDS011;3755;59.316;18.092;2023-06-24T05:07:31;2.53;;;1.30;;
7426;SDS011;3755;59.316;18.092;2023-06-24T05:09:58;2.70;;;1.35;;
7426;SDS011;3755;59.316;18.092;2023-06-24T05:12:27;3.50;;;1.60;;
7426;SDS011;3755;59.316;18.092;2023-06-24T05:14:54;3.92;;;1.45;;
7426;SDS011;3755;59.316;18.092;2023-06-24T05:17:21;3.05;;;1.42;;
7426;SDS011;3755;59.316;18.092;2023-06-24T05:19:48;2.83;;;1.33;;
7426;SDS011;3755;59.316;18.092;2023-06-24T05:22:16;3.28;;;1.20;;
7426;SDS011;3755;59.316;18.092;2023-06-24T05:24:43;3.03;;;1.60;;
7426;SDS011;3755;59.316;18.092;2023-06-24T05:27:10;3.75;;;1.42;;
7426;SDS011;3755;59.316;18.092;2023-06-24T05:29:38;3.78;;;1.50;;
7426;SDS011;3755;59.316;18.092;2023-06-24T05:32:06;2.38;;;1.27;;
7426;SDS011;3755;59.316;18.092;2023-06-24T05:34:33;2.47;;;1.40;;
7426;SDS011;3755;59.316;18.092;2023-06-24T05:37:00;1.65;;;1.17;;
7426;SDS011;3755;59.316;18.092;2023-06-24T05:39:28;4.03;;;1.38;;
7426;SDS011;3755;59.316;18.092;2023-06-24T05:41:55;2.55;;;1.70;;
7426;SDS011;3755;59.316;18.092;2023-06-24T05:44:22;3.67;;;1.40;;
7426;SDS011;3755;59.316;18.092;2023-06-24T05:46:50;3.55;;;1.58;;
7426;SDS011;3755;59.316;18.092;2023-06-24T05:49:17;3.15;;;1.30;;
7426;SDS011;3755;59.316;18.092;2023-06-24T05:51:44;2.20;;;1.40;;
7426;SDS011;3755;59.316;18.092;2023-06-24T05:54:11;1.77;;;1.20;;
7426;SDS011;3755;59.316;18.092;2023-06-24T05:56:39;2.72;;;1.23;;
7426;SDS011;3755;59.316;18.092;2023-06-24T05:59:06;4.85;;;1.40;;
7426;SDS011;3755;59.316;18.092;2023-06-24T06:01:33;3.42;;;1.40;;
7426;SDS011;3755;59.316;18.092;2023-06-24T06:04:01;2.15;;;1.33;;
7426;SDS011;3755;59.316;18.092;2023-06-24T06:06:29;1.35;;;1.00;;
7426;SDS011;3755;59.316;18.092;2023-06-24T06:08:56;2.70;;;1.30;;
7426;SDS011;3755;59.316;18.092;2023-06-24T06:11:23;1.55;;;1.00;;
7426;SDS011;3755;59.316;18.092;2023-06-24T06:13:50;3.50;;;1.33;;
7426;SDS011;3755;59.316;18.092;2023-06-24T06:16:18;2.25;;;1.20;;
7426;SDS011;3755;59.316;18.092;2023-06-24T06:18:45;3.33;;;1.42;;
7426;SDS011;3755;59.316;18.092;2023-06-24T06:21:13;2.75;;;1.23;;
7426;SDS011;3755;59.316;18.092;2023-06-24T06:23:41;2.33;;;1.20;;
7426;SDS011;3755;59.316;18.092;2023-06-24T06:26:08;2.75;;;1.10;;
7426;SDS011;3755;59.316;18.092;2023-06-24T06:28:35;2.15;;;1.02;;
7426;SDS011;3755;59.316;18.092;2023-06-24T06:31:02;4.38;;;1.30;;
7426;SDS011;3755;59.316;18.092;2023-06-24T06:33:29;3.28;;;1.20;;
7426;SDS011;3755;59.316;18.092;2023-06-24T06:35:56;1.92;;;1.10;;
7426;SDS011;3755;59.316;18.092;2023-06-24T06:38:25;2.03;;;1.15;;
7426;SDS011;3755;59.316;18.092;2023-06-24T06:40:52;1.38;;;1.00;;
7426;SDS011;3755;59.316;18.092;2023-06-24T06:43:19;2.38;;;1.20;;
7426;SDS011;3755;59.316;18.092;2023-06-24T06:45:47;3.45;;;1.20;;
7426;SDS011;3755;59.316;18.092;2023-06-24T06:48:14;1.60;;;1.10;;
7426;SDS011;3755;59.316;18.092;2023-06-24T06:50:41;3.10;;;1.48;;
7426;SDS011;3755;59.316;18.092;2023-06-24T06:53:08;2.17;;;1.30;;
7426;SDS011;3755;59.316;18.092;2023-06-24T06:55:37;3.30;;;1.10;;
7426;SDS011;3755;59.316;18.092;2023-06-24T06:58:05;1.80;;;1.15;;
7426;SDS011;3755;59.316;18.092;2023-06-24T07:00:32;1.45;;;0.93;;
7426;SDS011;3755;59.316;18.092;2023-06-24T07:02:59;1.70;;;1.10;;
7426;SDS011;3755;59.316;18.092;2023-06-24T07:05:27;5.22;;;1.75;;
7426;SDS011;3755;59.316;18.092;2023-06-24T07:07:54;4.00;;;1.27;;
7426;SDS011;3755;59.316;18.092;2023-06-24T07:10:21;2.15;;;1.10;;
7426;SDS011;3755;59.316;18.092;2023-06-24T07:12:50;2.17;;;1.00;;
7426;SDS011;3755;59.316;18.092;2023-06-24T07:15:23;4.68;;;1.25;;
7426;SDS011;3755;59.316;18.092;2023-06-24T07:17:51;1.55;;;1.30;;
7426;SDS011;3755;59.316;18.092;2023-06-24T07:20:18;2.70;;;1.42;;
7426;SDS011;3755;59.316;18.092;2023-06-24T07:22:45;2.20;;;0.90;;
7426;SDS011;3755;59.316;18.092;2023-06-24T07:25:13;5.07;;;1.40;;
7426;SDS011;3755;59.316;18.092;2023-06-24T07:27:40;1.65;;;1.02;;
7426;SDS011;3755;59.316;18.092;2023-06-24T07:30:09;1.92;;;1.35;;
7426;SDS011;3755;59.316;18.092;2023-06-24T07:32:36;1.80;;;1.38;;
7426;SDS011;3755;59.316;18.092;2023-06-24T07:35:04;1.60;;;1.08;;
7426;SDS011;3755;59.316;18.092;2023-06-24T07:37:31;1.10;;;1.00;;
7426;SDS011;3755;59.316;18.092;2023-06-24T07:39:59;3.08;;;1.55;;
7426;SDS011;3755;59.316;18.092;2023-06-24T07:42:26;3.15;;;1.20;;
7426;SDS011;3755;59.316;18.092;2023-06-24T07:44:53;2.03;;;1.30;;
7426;SDS011;3755;59.316;18.092;2023-06-24T07:47:21;2.55;;;1.10;;
7426;SDS011;3755;59.316;18.092;2023-06-24T07:49:48;2.45;;;1.20;;
7426;SDS011;3755;59.316;18.092;2023-06-24T07:52:15;4.82;;;1.58;;
7426;SDS011;3755;59.316;18.092;2023-06-24T07:54:43;3.33;;;1.13;;
7426;SDS011;3755;59.316;18.092;2023-06-24T07:57:10;3.47;;;1.23;;
7426;SDS011;3755;59.316;18.092;2023-06-24T07:59:37;4.22;;;1.58;;
7426;SDS011;3755;59.316;18.092;2023-06-24T08:02:04;1.73;;;1.20;;
7426;SDS011;3755;59.316;18.092;2023-06-24T08:04:33;1.48;;;1.00;;
7426;SDS011;3755;59.316;18.092;2023-06-24T08:07:00;2.85;;;1.08;;
7426;SDS011;3755;59.316;18.092;2023-06-24T08:09:29;2.83;;;1.35;;
7426;SDS011;3755;59.316;18.092;2023-06-24T08:11:56;2.08;;;1.02;;
7426;SDS011;3755;59.316;18.092;2023-06-24T08:14:23;1.52;;;1.08;;
7426;SDS011;3755;59.316;18.092;2023-06-24T08:16:50;2.50;;;1.02;;
7426;SDS011;3755;59.316;18.092;2023-06-24T08:19:17;1.92;;;1.25;;
7426;SDS011;3755;59.316;18.092;2023-06-24T08:21:46;2.53;;;1.55;;
7426;SDS011;3755;59.316;18.092;2023-06-24T08:24:13;3.22;;;1.27;;
7426;SDS011;3755;59.316;18.092;2023-06-24T08:26:40;3.60;;;1.38;;
7426;SDS011;3755;59.316;18.092;2023-06-24T08:29:07;2.00;;;1.05;;
7426;SDS011;3755;59.316;18.092;2023-06-24T08:31:34;1.92;;;0.95;;
7426;SDS011;3755;59.316;18.092;2023-06-24T08:34:01;1.70;;;1.20;;
7426;SDS011;3755;59.316;18.092;2023-06-24T08:36:30;1.60;;;0.95;;
7426;SDS011;3755;59.316;18.092;2023-06-24T08:38:59;3.10;;;1.27;;
7426;SDS011;3755;59.316;18.092;2023-06-24T08:41:26;2.22;;;1.20;;
7426;SDS011;3755;59.316;18.092;2023-06-24T08:43:53;2.08;;;1.20;;
7426;SDS011;3755;59.316;18.092;2023-06-24T08:46:20;2.22;;;1.00;;
7426;SDS011;3755;59.316;18.092;2023-06-24T08:48:51;3.28;;;1.10;;
7426;SDS011;3755;59.316;18.092;2023-06-24T08:51:25;2.20;;;1.33;;
7426;SDS011;3755;59.316;18.092;2023-06-24T08:53:56;1.60;;;1.05;;
7426;SDS011;3755;59.316;18.092;2023-06-24T08:56:25;2.38;;;1.20;;
7426;SDS011;3755;59.316;18.092;2023-06-24T08:58:53;2.30;;;1.30;;
7426;SDS011;3755;59.316;18.092;2023-06-24T09:01:20;1.40;;;1.10;;
7426;SDS011;3755;59.316;18.092;2023-06-24T09:03:48;2.67;;;1.00;;
7426;SDS011;3755;59.316;18.092;2023-06-24T09:06:15;2.25;;;1.05;;
7426;SDS011;3755;59.316;18.092;2023-06-24T09:08:51;1.92;;;1.20;;
7426;SDS011;3755;59.316;18.092;2023-06-24T09:11:23;1.75;;;0.98;;
7426;SDS011;3755;59.316;18.092;2023-06-24T09:13:54;2.13;;;1.08;;
7426;SDS011;3755;59.316;18.092;2023-06-24T09:16:22;1.05;;;0.95;;
7426;SDS011;3755;59.316;18.092;2023-06-24T09:18:49;1.15;;;0.82;;
7426;SDS011;3755;59.316;18.092;2023-06-24T09:21:21;1.15;;;0.90;;
7426;SDS011;3755;59.316;18.092;2023-06-24T09:23:51;1.95;;;1.08;;
7426;SDS011;3755;59.316;18.092;2023-06-24T09:26:19;1.88;;;1.05;;
7426;SDS011;3755;59.316;18.092;2023-06-24T09:28:50;1.85;;;1.08;;
7426;SDS011;3755;59.316;18.092;2023-06-24T09:31:18;1.15;;;1.05;;
7426;SDS011;3755;59.316;18.092;2023-06-24T09:33:48;1.10;;;0.90;;
7426;SDS011;3755;59.316;18.092;2023-06-24T09:36:15;1.45;;;1.10;;
7426;SDS011;3755;59.316;18.092;2023-06-24T09:38:42;1.67;;;0.95;;
7426;SDS011;3755;59.316;18.092;2023-06-24T09:41:10;2.53;;;1.50;;
7426;SDS011;3755;59.316;18.092;2023-06-24T09:43:41;0.85;;;0.82;;
7426;SDS011;3755;59.316;18.092;2023-06-24T09:46:09;2.65;;;1.35;;
7426;SDS011;3755;59.316;18.092;2023-06-24T09:48:36;2.58;;;0.90;;
7426;SDS011;3755;59.316;18.092;2023-06-24T09:51:04;1.15;;;1.00;;
7426;SDS011;3755;59.316;18.092;2023-06-24T09:53:31;1.98;;;0.82;;
7426;SDS011;3755;59.316;18.092;2023-06-24T09:56:00;2.22;;;0.80;;
7426;SDS011;3755;59.316;18.092;2023-06-24T09:58:28;1.42;;;0.90;;
7426;SDS011;3755;59.316;18.092;2023-06-24T10:01:01;2.35;;;1.00;;
7426;SDS011;3755;59.316;18.092;2023-06-24T10:03:29;1.20;;;0.90;;
7426;SDS011;3755;59.316;18.092;2023-06-24T10:05:58;4.43;;;1.15;;
7426;SDS011;3755;59.316;18.092;2023-06-24T10:08:26;1.00;;;0.90;;
7426;SDS011;3755;59.316;18.092;2023-06-24T10:10:55;1.27;;;0.98;;
7426;SDS011;3755;59.316;18.092;2023-06-24T10:13:22;3.13;;;0.93;;
7426;SDS011;3755;59.316;18.092;2023-06-24T10:15:49;1.50;;;0.90;;
7426;SDS011;3755;59.316;18.092;2023-06-24T10:21:13;1.52;;;1.10;;
7426;SDS011;3755;59.316;18.092;2023-06-24T10:23:42;1.98;;;0.88;;
7426;SDS011;3755;59.316;18.092;2023-06-24T10:26:22;1.48;;;1.00;;
7426;SDS011;3755;59.316;18.092;2023-06-24T10:29:08;2.05;;;1.10;;
7426;SDS011;3755;59.316;18.092;2023-06-24T10:31:55;2.17;;;1.15;;
7426;SDS011;3755;59.316;18.092;2023-06-24T10:34:31;3.45;;;1.23;;
7426;SDS011;3755;59.316;18.092;2023-06-24T10:37:01;2.35;;;1.38;;
7426;SDS011;3755;59.316;18.092;2023-06-24T10:39:36;1.63;;;1.30;;
7426;SDS011;3755;59.316;18.092;2023-06-24T10:42:29;1.85;;;0.90;;
7426;SDS011;3755;59.316;18.092;2023-06-24T10:45:13;5.22;;;1.33;;
7426;SDS011;3755;59.316;18.092;2023-06-24T10:47:42;1.40;;;0.98;;
7426;SDS011;3755;59.316;18.092;2023-06-24T10:50:11;1.58;;;1.10;;
7426;SDS011;3755;59.316;18.092;2023-06-24T10:52:41;2.17;;;1.27;;
7426;SDS011;3755;59.316;18.092;2023-06-24T10:55:09;4.95;;;1.50;;
7426;SDS011;3755;59.316;18.092;2023-06-24T10:57:36;1.83;;;1.25;;
7426;SDS011;3755;59.316;18.092;2023-06-24T11:00:04;1.90;;;1.40;;
7426;SDS011;3755;59.316;18.092;2023-06-24T11:02:32;4.90;;;1.80;;
7426;SDS011;3755;59.316;18.092;2023-06-24T11:05:00;3.10;;;1.90;;
7426;SDS011;3755;59.316;18.092;2023-06-24T11:07:28;2.33;;;1.50;;
7426;SDS011;3755;59.316;18.092;2023-06-24T11:10:00;1.73;;;1.15;;
7426;SDS011;3755;59.316;18.092;2023-06-24T11:12:30;2.80;;;1.92;;
7426;SDS011;3755;59.316;18.092;2023-06-24T11:14:58;4.00;;;1.60;;
7426;SDS011;3755;59.316;18.092;2023-06-24T11:17:26;2.45;;;1.27;;
7426;SDS011;3755;59.316;18.092;2023-06-24T11:19:54;1.80;;;1.40;;
7426;SDS011;3755;59.316;18.092;2023-06-24T11:22:22;2.50;;;1.20;;
7426;SDS011;3755;59.316;18.092;2023-06-24T11:24:50;8.90;;;1.80;;
7426;SDS011;3755;59.316;18.092;2023-06-24T11:27:23;2.50;;;1.48;;
7426;SDS011;3755;59.316;18.092;2023-06-24T11:29:52;3.47;;;1.50;;
7426;SDS011;3755;59.316;18.092;2023-06-24T11:32:19;3.72;;;1.50;;
7426;SDS011;3755;59.316;18.092;2023-06-24T11:34:47;3.40;;;1.70;;
7426;SDS011;3755;59.316;18.092;2023-06-24T11:37:15;4.28;;;1.55;;
7426;SDS011;3755;59.316;18.092;2023-06-24T11:39:43;2.22;;;1.40;;
7426;SDS011;3755;59.316;18.092;2023-06-24T11:42:11;1.98;;;1.70;;
7426;SDS011;3755;59.316;18.092;2023-06-24T11:44:42;1.63;;;1.33;;
7426;SDS011;3755;59.316;18.092;2023-06-24T11:47:09;1.85;;;1.35;;
7426;SDS011;3755;59.316;18.092;2023-06-24T11:49:49;3.75;;;1.58;;
7426;SDS011;3755;59.316;18.092;2023-06-24T11:52:18;2.55;;;1.67;;
7426;SDS011;3755;59.316;18.092;2023-06-24T11:54:45;2.03;;;1.35;;
7426;SDS011;3755;59.316;18.092;2023-06-24T11:57:16;1.98;;;1.60;;
7426;SDS011;3755;59.316;18.092;2023-06-24T11:59:45;2.53;;;1.40;;
7426;SDS011;3755;59.316;18.092;2023-06-24T12:02:17;2.17;;;1.40;;
7426;SDS011;3755;59.316;18.092;2023-06-24T12:04:45;2.33;;;1.65;;
7426;SDS011;3755;59.316;18.092;2023-06-24T12:07:14;1.95;;;1.75;;
7426;SDS011;3755;59.316;18.092;2023-06-24T12:09:41;3.85;;;1.83;;
7426;SDS011;3755;59.316;18.092;2023-06-24T12:12:08;1.73;;;1.60;;
7426;SDS011;3755;59.316;18.092;2023-06-24T12:14:36;3.80;;;1.75;;
7426;SDS011;3755;59.316;18.092;2023-06-24T12:17:04;2.08;;;1.80;;
7426;SDS011;3755;59.316;18.092;2023-06-24T12:19:32;2.65;;;1.63;;
7426;SDS011;3755;59.316;18.092;2023-06-24T12:21:59;1.92;;;1.70;;
7426;SDS011;3755;59.316;18.092;2023-06-24T12:24:26;3.55;;;2.00;;
7426;SDS011;3755;59.316;18.092;2023-06-24T12:26:53;4.47;;;2.35;;
7426;SDS011;3755;59.316;18.092;2023-06-24T12:29:21;1.63;;;1.35;;
7426;SDS011;3755;59.316;18.092;2023-06-24T12:31:48;3.15;;;1.98;;
7426;SDS011;3755;59.316;18.092;2023-06-24T12:34:17;3.25;;;2.00;;
7426;SDS011;3755;59.316;18.092;2023-06-24T12:36:46;2.95;;;1.95;;
7426;SDS011;3755;59.316;18.092;2023-06-24T12:39:13;2.30;;;1.85;;
7426;SDS011;3755;59.316;18.092;2023-06-24T12:41:40;2.55;;;2.08;;
7426;SDS011;3755;59.316;18.092;2023-06-24T12:44:07;2.13;;;1.90;;
7426;SDS011;3755;59.316;18.092;2023-06-24T12:46:34;4.10;;;2.40;;
7426;SDS011;3755;59.316;18.092;2023-06-24T12:49:01;2.20;;;1.65;;
7426;SDS011;3755;59.316;18.092;2023-06-24T12:51:30;3.13;;;2.10;;
7426;SDS011;3755;59.316;18.092;2023-06-24T12:53:58;1.98;;;1.52;;
7426;SDS011;3755;59.316;18.092;2023-06-24T12:56:25;2.92;;;2.03;;
7426;SDS011;3755;59.316;18.092;2023-06-24T12:58:52;3.35;;;1.73;;
7426;SDS011;3755;59.316;18.092;2023-06-24T13:01:19;3.95;;;1.80;;
7426;SDS011;3755;59.316;18.092;2023-06-24T13:03:47;2.00;;;1.73;;
7426;SDS011;3755;59.316;18.092;2023-06-24T13:06:14;2.38;;;1.95;;
7426;SDS011;3755;59.316;18.092;2023-06-24T13:08:42;2.22;;;2.03;;
7426;SDS011;3755;59.316;18.092;2023-06-24T13:11:09;3.30;;;1.90;;
7426;SDS011;3755;59.316;18.092;2023-06-24T13:13:37;3.85;;;2.17;;
7426;SDS011;3755;59.316;18.092;2023-06-24T13:16:04;1.83;;;1.52;;
7426;SDS011;3755;59.316;18.092;2023-06-24T13:18:31;2.00;;;1.60;;
7426;SDS011;3755;59.316;18.092;2023-06-24T13:20:58;3.40;;;1.90;;
7426;SDS011;3755;59.316;18.092;2023-06-24T13:23:25;2.05;;;1.80;;
7426;SDS011;3755;59.316;18.092;2023-06-24T13:25:54;2.33;;;1.50;;
7426;SDS011;3755;59.316;18.092;2023-06-24T13:28:21;2.55;;;1.75;;
7426;SDS011;3755;59.316;18.092;2023-06-24T13:30:49;2.13;;;1.70;;
7426;SDS011;3755;59.316;18.092;2023-06-24T13:33:19;2.30;;;1.70;;
7426;SDS011;3755;59.316;18.092;2023-06-24T13:35:46;4.10;;;1.88;;
7426;SDS011;3755;59.316;18.092;2023-06-24T13:38:14;2.60;;;1.77;;
7426;SDS011;3755;59.316;18.092;2023-06-24T13:40:41;2.22;;;1.80;;
7426;SDS011;3755;59.316;18.092;2023-06-24T13:43:10;1.80;;;1.48;;
7426;SDS011;3755;59.316;18.092;2023-06-24T13:45:37;2.33;;;1.42;;
7426;SDS011;3755;59.316;18.092;2023-06-24T13:48:04;3.65;;;1.42;;
7426;SDS011;3755;59.316;18.092;2023-06-24T13:50:31;3.45;;;1.20;;
7426;SDS011;3755;59.316;18.092;2023-06-24T13:52:59;2.35;;;1.48;;
7426;SDS011;3755;59.316;18.092;2023-06-24T13:55:26;2.13;;;1.75;;
7426;SDS011;3755;59.316;18.092;2023-06-24T13:57:53;1.90;;;1.30;;
7426;SDS011;3755;59.316;18.092;2023-06-24T14:00:22;2.90;;;1.58;;
7426;SDS011;3755;59.316;18.092;2023-06-24T14:02:50;3.28;;;1.55;;
7426;SDS011;3755;59.316;18.092;2023-06-24T14:05:17;1.83;;;1.17;;
7426;SDS011;3755;59.316;18.092;2023-06-24T14:07:45;3.90;;;1.60;;
7426;SDS011;3755;59.316;18.092;2023-06-24T14:10:12;2.42;;;1.65;;
7426;SDS011;3755;59.316;18.092;2023-06-24T14:12:39;2.83;;;1.80;;
7426;SDS011;3755;59.316;18.092;2023-06-24T14:15:08;1.92;;;1.45;;
7426;SDS011;3755;59.316;18.092;2023-06-24T14:17:37;1.77;;;1.33;;
7426;SDS011;3755;59.316;18.092;2023-06-24T14:20:04;3.08;;;1.45;;
7426;SDS011;3755;59.316;18.092;2023-06-24T14:22:33;3.88;;;1.50;;
7426;SDS011;3755;59.316;18.092;2023-06-24T14:25:00;2.00;;;1.50;;
7426;SDS011;3755;59.316;18.092;2023-06-24T14:27:27;3.83;;;1.52;;
7426;SDS011;3755;59.316;18.092;2023-06-24T14:29:54;1.92;;;1.30;;
7426;SDS011;3755;59.316;18.092;2023-06-24T14:32:21;3.60;;;1.80;;
7426;SDS011;3755;59.316;18.092;2023-06-24T14:34:50;2.53;;;1.65;;
7426;SDS011;3755;59.316;18.092;2023-06-24T14:37:17;1.90;;;1.58;;
7426;SDS011;3755;59.316;18.092;2023-06-24T14:39:44;1.95;;;1.60;;
7426;SDS011;3755;59.316;18.092;2023-06-24T14:42:11;2.72;;;1.70;;
7426;SDS011;3755;59.316;18.092;2023-06-24T14:44:38;4.00;;;2.03;;
7426;SDS011;3755;59.316;18.092;2023-06-24T14:47:06;2.35;;;1.58;;
7426;SDS011;3755;59.316;18.092;2023-06-24T14:49:33;3.50;;;1.27;;
7426;SDS011;3755;59.316;18.092;2023-06-24T14:52:02;5.68;;;1.70;;
7426;SDS011;3755;59.316;18.092;2023-06-24T14:54:29;2.50;;;1.45;;
7426;SDS011;3755;59.316;18.092;2023-06-24T14:56:56;2.55;;;1.40;;
7426;SDS011;3755;59.316;18.092;2023-06-24T14:59:23;1.65;;;1.55;;
7426;SDS011;3755;59.316;18.092;2023-06-24T15:01:51;1.95;;;1.52;;
7426;SDS011;3755;59.316;18.092;2023-06-24T15:04:18;1.63;;;1.50;;
7426;SDS011;3755;59.316;18.092;2023-06-24T15:06:45;1.70;;;1.40;;
7426;SDS011;3755;59.316;18.092;2023-06-24T15:09:13;4.30;;;1.70;;
7426;SDS011;3755;59.316;18.092;2023-06-24T15:11:41;3.40;;;1.40;;